Flight Track Log - Related Links

Times and Time Zones

All times are in EDT time to prevent confusion due to time zone crossing. See the SWA896 flight status page for this flight to view local times or setup timezone preferences in your user account.

Time Position Orientation Groundspeed Altitude Reporting Facility
EDT Latitude Longitude Course Direction KTS MPH feet Rate Location/Type
Tue 08:12:02 AM 42.9333 -78.7500 216° Southwest 173 199 1,700  Level Buffalo TRACON
Tue 08:13:02 AM 42.8833 -78.8000 216° Southwest 200 230 3,300 2,091 Climbing Buffalo TRACON
Tue 08:14:14 AM 42.8078 -78.8456 204° Southwest 281 323 6,300 2,727 Climbing Cleveland Center
Tue 08:15:14 AM 42.7394 -78.8758 198° South 288 331 9,300 2,400 Climbing Cleveland Center
Tue 08:16:14 AM 42.6564 -78.9092 196° South 276 318 11,100 2,000 Climbing Cleveland Center
Tue 08:17:14 AM 42.5633 -78.9539 199° South 320 368 13,300 2,350 Climbing Cleveland Center
Tue 08:18:14 AM 42.4939 -79.0542 227° Southwest 348 400 15,800 2,200 Climbing Cleveland Center
Tue 08:19:14 AM 42.4264 -79.1656 231° Southwest 366 421 17,700 1,750 Climbing Cleveland Center
Tue 08:20:14 AM 42.3697 -79.2961 240° Southwest 394 453 19,300 1,900 Climbing Cleveland Center
Tue 08:21:14 AM 42.3128 -79.4292 240° Southwest 415 478 21,500 1,850 Climbing Cleveland Center
Tue 08:22:14 AM 42.2975 -79.5697 262° West 404 465 23,000 1,450 Climbing Cleveland Center
Tue 08:23:14 AM 42.2903 -79.7272 267° West 419 482 24,400 1,500 Climbing Cleveland Center
Tue 08:24:14 AM 42.2811 -79.8900 266° West 430 495 26,000 1,550 Climbing Cleveland Center
Tue 08:25:14 AM 42.2714 -80.0697 266° West 440 506 27,500 1,550 Climbing Cleveland Center
Tue 08:26:14 AM 42.2617 -80.2297 265° West 445 512 29,100 1,500 Climbing Cleveland Center
Tue 08:27:14 AM 42.2558 -80.3925 267° West 445 512 30,500 1,450 Climbing Cleveland Center
Tue 08:28:14 AM 42.2456 -80.5494 265° West 439 505 32,000 1,550 Climbing Cleveland Center
Tue 08:29:14 AM 42.2372 -80.7039 266° West 426 490 33,600 1,000 Climbing Cleveland Center
Tue 08:30:14 AM 42.2264 -80.8550 265° West 415 478 34,000 200 Climbing Cleveland Center
Tue 08:31:14 AM 42.2178 -81.0064 266° West 410 472 34,000  Level Cleveland Center
Tue 08:32:14 AM 42.2086 -81.1578 265° West 405 466 34,000  Level Cleveland Center
Tue 08:33:14 AM 42.1994 -81.3119 265° West 411 473 34,000  Level Cleveland Center
Tue 08:34:14 AM 42.1881 -81.4658 264° West 411 473 34,000  Level Cleveland Center
Tue 08:35:14 AM 42.1783 -81.6197 265° West 411 473 34,000  Level Cleveland Center
Tue 08:36:14 AM 42.1708 -81.7569 266° West 411 473 34,000  Level Cleveland Center
Tue 08:37:14 AM 42.1586 -81.9136 264° West 416 479 34,000  Level Cleveland Center
Tue 08:38:14 AM 42.1483 -82.0647 265° West 422 486 34,000  Level Cleveland Center
Tue 08:39:14 AM 42.1381 -82.2128 265° West 417 480 34,000  Level Cleveland Center
Tue 08:40:14 AM 42.1275 -82.3636 265° West 412 474 34,000  Level Cleveland Center
Tue 08:41:14 AM 42.1167 -82.5089 264° West 412 474 34,000  Level Cleveland Center
Tue 08:42:14 AM 42.1017 -82.6597 262° West 405 466 34,000  Level Cleveland Center
Tue 08:43:14 AM 42.0928 -82.8050 265° West 405 466 34,000  Level Cleveland Center
Tue 08:44:14 AM 42.0814 -82.9500 264° West 405 466 34,000  Level Cleveland Center
Tue 08:45:14 AM 42.0675 -83.1089 263° West 405 466 34,000  Level Cleveland Center
Tue 08:46:14 AM 42.0581 -83.2569 265° West 405 466 34,000  Level Cleveland Center
Tue 08:47:14 AM 42.0461 -83.4017 264° West 405 466 34,000  Level Cleveland Center
Tue 08:48:14 AM 42.0344 -83.5411 264° West 395 455 34,000  Level Cleveland Center
Tue 08:49:14 AM 42.0203 -83.6831 262° West 385 443 34,000  Level Cleveland Center
Tue 08:50:14 AM 42.0103 -83.8194 264° West 385 443 34,000  Level Cleveland Center
Tue 08:51:14 AM 41.9981 -83.9531 263° West 385 443 34,000  Level Cleveland Center
Tue 08:53:15 AM 41.9775 -84.2128 264° West 366 421 34,000  Level Chicago Center
Tue 08:54:17 AM 41.9656 -84.3469 263° West 363 418 34,000  Level Chicago Center
Tue 08:55:18 AM 41.9536 -84.4756 263° West 362 417 34,000  Level Chicago Center
Tue 08:56:20 AM 41.9394 -84.6347 263° West 360 414 34,000  Level Chicago Center
Tue 08:57:22 AM 41.9264 -84.7672 262° West 359 413 34,000  Level Chicago Center
Tue 08:58:23 AM 41.9136 -84.9000 263° West 361 415 34,000  Level Chicago Center
Tue 08:59:25 AM 41.9017 -85.0325 263° West 359 413 34,000  Level Chicago Center
Tue 09:00:27 AM 41.8883 -85.1647 262° West 360 414 34,000  Level Chicago Center
Tue 09:01:28 AM 41.8758 -85.2942 263° West 357 411 34,000 293 Level Chicago Center
Tue 09:02:30 AM 41.8600 -85.4478 262° West 353 406 34,600 726 Climbing Chicago Center
Tue 09:03:32 AM 41.8469 -85.5742 262° West 349 402 35,500 683 Climbing Chicago Center
Tue 09:04:33 AM 41.8339 -85.7000 262° West 346 398 36,000 244 Climbing Chicago Center
Tue 09:05:35 AM 41.8203 -85.8289 262° West 352 405 36,000  Level Chicago Center
Tue 09:06:37 AM 41.8064 -85.9586 262° West 356 410 36,000  Level Chicago Center
Tue 09:07:38 AM 41.7933 -86.0886 262° West 356 410 36,000  Level Chicago Center
Tue 09:08:40 AM 41.7764 -86.2411 262° West 351 404 36,000  Level Chicago Center
Tue 09:09:42 AM 41.7636 -86.3669 262° West 344 396 36,000  Level Chicago Center
Tue 09:10:43 AM 41.7506 -86.4925 262° West 344 396 36,000  Level Chicago Center
Tue 09:11:45 AM 41.7375 -86.6158 262° West 339 390 36,000  Level Chicago Center
Tue 09:12:47 AM 41.7244 -86.7375 262° West 331 381 36,000  Level Chicago Center
Tue 09:13:49 AM 41.7108 -86.8575 261° West 329 379 36,000  Level Chicago Center
Tue 09:14:50 AM 41.6956 -87.0017 262° West 330 380 36,000  Level Chicago Center
Tue 09:15:52 AM 41.6828 -87.1219 262° West 329 379 36,000  Level Chicago Center
Tue 09:16:54 AM 41.6694 -87.2425 262° West 330 380 36,000  Level Chicago Center
Tue 09:17:56 AM 41.6564 -87.3653 262° West 334 384 36,000  Level Chicago Center
Tue 09:18:57 AM 41.6436 -87.4861 262° West 332 382 36,000  Level Chicago Center
Tue 09:19:59 AM 41.6289 -87.6083 261° West 333 383 36,000  Level Chicago Center
Tue 09:21:01 AM 41.6125 -87.7553 262° West 335 386 36,000  Level Chicago Center
Tue 09:22:03 AM 41.5983 -87.8753 261° West 333 383 36,000  Level Chicago Center
Tue 09:23:05 AM 41.5842 -87.9953 261° West 333 383 36,000  Level Chicago Center
Tue 09:24:07 AM 41.5700 -88.1136 261° West 332 382 36,000  Level Chicago Center
Tue 09:25:09 AM 41.5531 -88.2569 261° West 333 383 36,000  Level Chicago Center
Tue 09:26:11 AM 41.5458 -88.3783 265° West 335 386 36,000  Level Chicago Center
Tue 09:27:12 AM 41.5472 -88.5014 271° West 335 386 36,000  Level Chicago Center
Tue 09:28:14 AM 41.5472 -88.6250 270° West 336 387 36,000  Level Chicago Center
Tue 09:29:16 AM 41.5478 -88.7492 270° West 337 388 36,000  Level Chicago Center
Tue 09:30:18 AM 41.5478 -88.8997 270° West 340 391 36,000  Level Chicago Center
Tue 09:31:20 AM 41.5472 -89.0247 270° West 339 390 36,000  Level Chicago Center
Tue 09:32:22 AM 41.5478 -89.1517 270° West 343 395 36,000  Level Chicago Center
Tue 09:33:24 AM 41.5481 -89.2783 270° West 343 395 36,000  Level Chicago Center
Tue 09:34:26 AM 41.5475 -89.4028 270° West 340 391 36,000  Level Chicago Center
Tue 09:35:28 AM 41.5469 -89.5531 270° West 339 390 36,000  Level Chicago Center
Tue 09:36:30 AM 41.5469 -89.6600 270° West 343 395 36,000  Level Chicago Center
Tue 09:37:32 AM 41.5456 -89.8131 269° West 345 397 36,000  Level Chicago Center
Tue 09:38:34 AM 41.5456 -89.9386 270° West 341 392 36,000  Level Chicago Center
Tue 09:39:35 AM 41.5450 -90.0647 270° West 340 391 36,000  Level Chicago Center
Tue 09:40:37 AM 41.5433 -90.1906 269° West 340 391 36,000  Level Chicago Center
Tue 09:41:39 AM 41.5411 -90.3217 269° West 355 409 36,000  Level Chicago Center
Tue 09:42:41 AM 41.5392 -90.4489 269° West 347 399 36,000  Level Chicago Center
Tue 09:43:43 AM 41.5378 -90.6000 269° West 342 394 36,000  Level Chicago Center
Tue 09:44:45 AM 41.5353 -90.7192 268° West 344 396 36,000  Level Chicago Center
Tue 09:45:46 AM 41.5336 -90.8461 269° West 344 396 36,000  Level Chicago Center
Tue 09:46:48 AM 41.5325 -90.9717 269° West 341 392 36,000  Level Chicago Center
Tue 09:47:50 AM 41.5292 -91.1222 268° West 339 390 36,000  Level Chicago Center
Tue 09:48:52 AM 41.5264 -91.2483 268° West 341 392 36,000  Level Chicago Center
Tue 09:49:54 AM 41.5250 -91.3736 269° West 341 392 36,000  Level Chicago Center
Tue 09:50:55 AM 41.5211 -91.5019 268° West 344 396 36,000  Level Chicago Center
Tue 09:51:57 AM 41.5186 -91.6258 268° West 339 390 36,000  Level Chicago Center
Tue 09:52:59 AM 41.5067 -91.7519 263° West 342 394 36,000  Level Chicago Center
Tue 09:54:01 AM 41.4917 -91.9008 262° West 341 392 36,000  Level Chicago Center
Tue 09:55:03 AM 41.4800 -92.0247 263° West 340 391 36,000  Level Chicago Center
Tue 09:56:05 AM 41.4683 -92.1492 263° West 340 391 36,000  Level Chicago Center
Tue 09:57:07 AM 41.4558 -92.2753 263° West 344 396 36,000  Level Chicago Center
Tue 09:58:08 AM 41.4422 -92.4069 262° West 342 394 36,000  Level Chicago Center
Tue 09:59:10 AM 41.4294 -92.5314 262° West 343 395 36,000  Level Chicago Center
Tue 10:00:16 AM 41.4147 -92.6831 263° West 344 396 36,000  Level Minneapolis Center
Tue 10:01:30 AM 41.4011 -92.8069 262° West 342 394 36,000  Level Minneapolis Center
Tue 10:02:32 AM 41.3858 -92.9564 262° West 343 395 36,000  Level Minneapolis Center
Tue 10:03:33 AM 41.3733 -93.0808 262° West 342 394 36,000  Level Minneapolis Center
Tue 10:04:35 AM 41.3592 -93.2039 261° West 341 392 36,000  Level Minneapolis Center
Tue 10:06:23 AM 41.3356 -93.4250 262° West 341 392 36,000  Level Chicago Center
Tue 10:06:38 AM 41.3297 -93.4761 261° West 340 391 36,000  Level Minneapolis Center
Tue 10:07:40 AM 41.3178 -93.5961 262° West 334 384 36,000  Level Minneapolis Center
Tue 10:08:41 AM 41.3039 -93.7203 262° West 339 390 36,000  Level Minneapolis Center
Tue 10:09:43 AM 41.2906 -93.8419 262° West 338 389 36,000  Level Minneapolis Center
Tue 10:10:45 AM 41.2764 -93.9658 261° West 341 392 36,000  Level Minneapolis Center
Tue 10:11:46 AM 41.2586 -94.1142 261° West 342 394 36,000  Level Minneapolis Center
Tue 10:13:00 AM 41.2456 -94.2303 262° West 345 397 36,000  Level Minneapolis Center
Tue 10:14:02 AM 41.2278 -94.3811 261° West 344 396 36,000  Level Minneapolis Center
Tue 10:15:03 AM 41.2128 -94.5083 261° West 346 398 36,000  Level Minneapolis Center
Tue 10:16:05 AM 41.1944 -94.6608 261° West 347 399 36,000  Level Minneapolis Center
Tue 10:17:07 AM 41.1797 -94.7869 261° West 347 399 36,000  Level Minneapolis Center
Tue 10:18:08 AM 41.1644 -94.9131 261° West 346 398 36,000  Level Minneapolis Center
Tue 10:19:22 AM 41.1481 -95.0392 260° West 346 398 36,000  Level Minneapolis Center
Tue 10:20:24 AM 41.1294 -95.1903 261° West 345 397 36,000  Level Minneapolis Center
Tue 10:21:25 AM 41.1136 -95.3128 260° West 341 392 36,000  Level Minneapolis Center
Tue 10:22:27 AM 41.0975 -95.4369 260° West 340 391 36,000  Level Minneapolis Center
Tue 10:23:28 AM 41.0853 -95.5364 261° West 340 391 36,000  Level Minneapolis Center
Tue 10:24:31 AM 41.0653 -95.6842 260° West 339 390 36,000  Level Minneapolis Center
Tue 10:25:32 AM 41.0467 -95.8328 261° West 338 389 36,000  Level Minneapolis Center
Tue 10:26:34 AM 41.0297 -95.9572 260° West 339 390 36,000  Level Minneapolis Center
Tue 10:27:36 AM 41.0133 -96.0833 260° West 342 394 36,000  Level Minneapolis Center
Tue 10:28:38 AM 40.9969 -96.2075 260° West 342 394 36,000  Level Minneapolis Center
Tue 10:29:39 AM 40.9836 -96.3089 260° West 343 395 36,000  Level Minneapolis Center
Tue 10:30:41 AM 40.9625 -96.4589 259° West 345 397 36,000  Level Minneapolis Center
Tue 10:31:43 AM 40.9431 -96.5842 258° West 345 397 36,000  Level Minneapolis Center
Tue 10:32:45 AM 40.9183 -96.7072 255° West 346 398 36,000  Level Minneapolis Center
Tue 10:33:46 AM 40.8947 -96.8306 256° West 346 398 36,000  Level Minneapolis Center
Tue 10:34:48 AM 40.8656 -96.9781 255° West 346 398 36,000  Level Minneapolis Center
Tue 10:35:50 AM 40.8414 -97.1017 256° West 347 399 36,000  Level Minneapolis Center
Tue 10:36:52 AM 40.8172 -97.2247 255° West 347 399 36,000  Level Minneapolis Center
Tue 10:37:54 AM 40.7917 -97.3489 255° West 350 403 36,000  Level Minneapolis Center
Tue 10:38:55 AM 40.7683 -97.4728 256° West 352 405 36,000  Level Minneapolis Center
Tue 10:39:57 AM 40.7431 -97.5989 255° West 354 407 36,000  Level Minneapolis Center
Tue 10:40:59 AM 40.7183 -97.7239 255° West 353 406 36,000  Level Minneapolis Center
Tue 10:42:01 AM 40.6872 -97.8722 255° West 351 404 36,000  Level Minneapolis Center
Tue 10:43:03 AM 40.6617 -97.9967 255° West 351 404 36,000  Level Minneapolis Center
Tue 10:44:05 AM 40.6378 -98.1206 256° West 350 403 36,000  Level Minneapolis Center
Tue 10:45:07 AM 40.6122 -98.2428 255° West 347 399 36,000  Level Minneapolis Center
Tue 10:46:08 AM 40.5858 -98.3650 254° West 346 398 36,000  Level Minneapolis Center
Tue 10:47:10 AM 40.5653 -98.4639 255° West 347 399 36,000  Level Minneapolis Center
Tue 10:48:12 AM 40.5392 -98.5878 255° West 349 402 36,000  Level Minneapolis Center
Tue 10:49:26 AM 40.5086 -98.7367 255° West 349 402 36,000  Level Minneapolis Center
Tue 10:50:28 AM 40.4708 -98.9122 254° West 354 407 36,000  Level Minneapolis Center
Tue 10:51:30 AM 40.4436 -99.0381 254° West 356 410 36,000  Level Minneapolis Center
Tue 10:52:29 AM 40.4164 -99.1647 254° West 358 412 36,000  Level Denver Center
Tue 10:53:31 AM 40.3889 -99.2883 254° West 353 406 36,000  Level Denver Center
Tue 10:54:32 AM 40.3622 -99.4128 254° West 353 406 36,000  Level Denver Center
Tue 10:55:34 AM 40.3358 -99.5347 254° West 349 402 36,000  Level Denver Center
Tue 10:56:36 AM 40.3092 -99.6572 254° West 347 399 36,000  Level Denver Center
Tue 10:57:38 AM 40.2819 -99.7781 254° West 345 397 36,000  Level Denver Center
Tue 10:58:40 AM 40.2542 -99.9067 254° West 352 405 36,000  Level Denver Center
Tue 10:59:42 AM 40.2219 -100.0436 253° West 353 406 36,000  Level Denver Center
Tue 11:00:44 AM 40.1956 -100.1614 254° West 353 406 36,000  Level Denver Center
Tue 11:01:46 AM 40.1644 -100.2992 254° West 353 406 36,000  Level Denver Center
Tue 11:02:48 AM 40.1375 -100.4161 253° West 351 404 36,000  Level Denver Center
Tue 11:03:50 AM 40.1069 -100.5536 254° West 351 404 36,000  Level Denver Center
Tue 11:04:52 AM 40.0797 -100.6697 253° West 349 402 36,000  Level Denver Center
Tue 11:05:54 AM 40.0525 -100.7864 253° West 349 402 36,000  Level Denver Center
Tue 11:06:56 AM 40.0206 -100.9208 253° West 347 399 36,000  Level Denver Center
Tue 11:07:58 AM 39.9928 -101.0386 253° West 352 405 36,000  Level Denver Center
Tue 11:09:00 AM 39.9608 -101.1750 253° West 352 405 36,000  Level Denver Center
Tue 11:10:02 AM 39.9333 -101.2889 253° West 345 397 36,000  Level Denver Center
Tue 11:11:04 AM 39.9008 -101.4272 253° West 353 406 36,000  Level Denver Center
Tue 11:12:06 AM 39.8731 -101.5422 253° West 348 400 36,000  Level Denver Center
Tue 11:13:09 AM 39.8411 -101.6781 253° West 352 405 36,000  Level Denver Center
Tue 11:14:11 AM 39.8119 -101.7942 252° West 352 405 36,000  Level Denver Center
Tue 11:15:13 AM 39.7781 -101.9328 252° West 358 412 36,000  Level Denver Center
Tue 11:16:15 AM 39.7506 -102.0517 253° West 360 414 36,000  Level Denver Center
Tue 11:17:17 AM 39.7211 -102.1683 252° West 356 410 36,000  Level Denver Center
Tue 11:18:19 AM 39.6864 -102.3075 252° West 362 417 36,000  Level Denver Center
Tue 11:19:21 AM 39.6572 -102.4253 252° West 359 413 36,000  Level Denver Center
Tue 11:20:23 AM 39.6225 -102.5628 252° West 359 413 36,000  Level Denver Center
Tue 11:21:25 AM 39.5911 -102.6897 252° West 359 413 36,000  Level Denver Center
Tue 11:22:27 AM 39.5594 -102.8147 252° West 361 415 36,000  Level Denver Center
Tue 11:23:29 AM 39.5272 -102.9364 251° West 358 412 36,000  Level Denver Center
Tue 11:24:31 AM 39.4967 -103.0589 252° West 353 406 36,000  Level Denver Center
Tue 11:25:33 AM 39.4653 -103.1822 252° West 356 410 36,000  Level Denver Center
Tue 11:26:35 AM 39.4278 -103.3236 251° West 354 407 36,000  Level Denver Center
Tue 11:27:37 AM 39.3969 -103.4456 252° West 354 407 36,000  Level Denver Center
Tue 11:28:39 AM 39.3658 -103.5681 252° West 355 409 36,000  Level Denver Center
Tue 11:29:41 AM 39.3336 -103.6903 251° West 356 410 36,000  Level Denver Center
Tue 11:30:43 AM 39.3014 -103.8142 251° West 360 414 36,000  Level Denver Center
Tue 11:31:45 AM 39.2681 -103.9369 251° West 359 413 36,000  Level Denver Center
Tue 11:32:48 AM 39.2356 -104.0606 251° West 360 414 36,000  Level Denver Center
Tue 11:33:50 AM 39.2022 -104.1850 251° West 364 419 36,000  Level Denver Center
Tue 11:34:52 AM 39.1639 -104.3261 251° West 353 406 36,000  Level Denver Center
Tue 11:35:54 AM 39.1319 -104.4461 251° West 349 402 36,000  Level Denver Center
Tue 11:36:56 AM 39.0989 -104.5664 251° West 351 404 36,000  Level Denver Center
Tue 11:37:58 AM 39.0661 -104.6883 251° West 354 407 36,000  Level Denver Center
Tue 11:39:00 AM 39.0319 -104.8106 250° West 358 412 36,000  Level Denver Center
Tue 11:40:02 AM 38.9989 -104.9311 251° West 354 407 36,000  Level Denver Center
Tue 11:41:04 AM 38.9647 -105.0536 250° West 360 414 36,000  Level Denver Center
Tue 11:42:06 AM 38.9308 -105.1767 251° West 362 417 36,000  Level Denver Center
Tue 11:43:08 AM 38.8922 -105.3153 250° West 353 406 36,000  Level Denver Center
Tue 11:44:10 AM 38.8581 -105.4361 250° West 355 409 36,000  Level Denver Center
Tue 11:45:12 AM 38.8247 -105.5572 251° West 356 410 36,000  Level Denver Center
Tue 11:46:14 AM 38.7900 -105.6761 249° West 354 407 36,000  Level Denver Center
Tue 11:47:16 AM 38.7572 -105.7936 250° West 348 400 36,000  Level Denver Center
Tue 11:48:18 AM 38.7231 -105.9128 250° West 351 404 36,000  Level Denver Center
Tue 11:49:20 AM 38.6892 -106.0300 250° West 350 403 36,000  Level Denver Center
Tue 11:50:23 AM 38.6500 -106.1661 250° West 355 409 36,000  Level Denver Center
Tue 11:51:25 AM 38.6150 -106.2869 250° West 360 414 36,000  Level Denver Center
Tue 11:52:27 AM 38.5792 -106.4089 249° West 362 417 36,000 242 Level Denver Center
Tue 11:53:29 AM 38.5439 -106.5300 250° West 361 415 36,500 532 Climbing Denver Center
Tue 11:54:31 AM 38.5083 -106.6508 249° West 361 415 37,100 532 Climbing Denver Center
Tue 11:55:33 AM 38.4719 -106.7739 249° West 368 423 37,600 387 Climbing Denver Center
Tue 11:56:35 AM 38.4347 -106.8989 249° West 376 433 37,900 194 Climbing Denver Center
Tue 11:57:37 AM 38.3964 -107.0281 249° West 385 443 38,000 48 Climbing Denver Center
Tue 11:58:39 AM 38.3506 -107.1825 249° West 386 444 38,000  Level Denver Center
Tue 11:59:42 AM 38.3139 -107.3017 249° West 389 448 38,000  Level Denver Center
Tue 12:00:44 PM 38.2711 -107.4450 249° West 387 445 38,000  Level Denver Center
Tue 12:01:45 PM 38.2339 -107.5692 249° West 391 450 38,000  Level Denver Center
Tue 12:02:47 PM 38.1908 -107.7108 249° West 387 445 38,000  Level Denver Center
Tue 12:03:49 PM 38.1533 -107.8319 249° West 385 443 38,000  Level Denver Center
Tue 12:04:51 PM 38.1097 -107.9750 249° West 387 445 38,000  Level Denver Center
Tue 12:05:54 PM 38.0694 -108.1022 248° West 383 441 38,000  Level Denver Center
Tue 12:06:56 PM 38.0325 -108.2214 249° West 380 437 38,000  Level Denver Center
Tue 12:07:58 PM 37.9872 -108.3672 249° West 394 453 38,000  Level Denver Center
Tue 12:09:00 PM 37.9486 -108.4875 248° West 389 448 38,000  Level Denver Center
Tue 12:10:02 PM 37.9042 -108.6325 249° West 392 451 38,000  Level Denver Center
Tue 12:11:04 PM 37.8653 -108.7528 248° West 390 449 38,000  Level Denver Center
Tue 12:12:06 PM 37.8194 -108.8947 248° West 391 450 38,000  Level Denver Center
Tue 12:13:08 PM 37.7867 -109.0222 252° West 397 457 38,000  Level Denver Center
Tue 12:14:10 PM 37.7503 -109.1686 253° West 394 453 38,000  Level Denver Center
Tue 12:15:12 PM 37.7181 -109.2942 252° West 394 453 38,000  Level Denver Center
Tue 12:16:15 PM 37.6808 -109.4447 253° West 400 460 38,000  Level Denver Center
Tue 12:17:17 PM 37.6492 -109.5722 253° West 400 460 38,000  Level Denver Center
Tue 12:18:19 PM 37.6111 -109.7228 252° West 405 466 38,000 -387 Level Denver Center
Tue 12:19:21 PM 37.5792 -109.8472 252° West 395 455 37,200 -823 Descending Denver Center
Tue 12:20:23 PM 37.5481 -109.9714 252° West 388 447 36,300 -581 Descending Denver Center
Tue 12:21:25 PM 37.5106 -110.1153 252° West 387 445 36,000 -145 Descending Denver Center
Tue 12:22:27 PM 37.4772 -110.2439 252° West 382 440 36,000  Level Denver Center
Tue 12:23:29 PM 37.4456 -110.3703 253° West 378 435 36,000  Level Denver Center
Tue 12:24:31 PM 37.4108 -110.4967 251° West 383 441 36,000 -435 Level Denver Center
Tue 12:25:33 PM 37.3786 -110.6225 252° West 380 437 35,100 -1,016 Descending Denver Center
Tue 12:26:35 PM 37.3411 -110.7644 252° West 361 415 33,900 -1,113 Descending Denver Center
Tue 12:27:37 PM 37.3103 -110.8792 251° West 349 402 32,800 -1,016 Descending Denver Center
Tue 12:28:39 PM 37.2811 -110.9925 252° West 344 396 31,800 -968 Descending Denver Center
Tue 12:29:41 PM 37.2525 -111.0997 251° West 329 379 30,800 -871 Descending Denver Center
Tue 12:30:43 PM 37.2250 -111.2017 251° West 314 361 30,000 -387 Descending Denver Center
Tue 12:31:45 PM 37.1981 -111.3036 252° West 308 354 30,000  Level Denver Center
Tue 12:32:47 PM 37.1656 -111.4264 252° West 310 357 30,000  Level Denver Center
Tue 12:33:49 PM 37.1375 -111.5306 251° West 312 359 30,000  Level Denver Center
Tue 12:34:51 PM 37.1083 -111.6342 251° West 315 362 30,000  Level Denver Center
Tue 12:35:53 PM 37.0800 -111.7394 251° West 318 366 30,000  Level Denver Center
Tue 12:36:55 PM 37.0508 -111.8450 251° West 320 368 30,000  Level Denver Center
Tue 12:37:58 PM 37.0264 -111.9522 254° West 320 368 30,000  Level Denver Center
Tue 12:39:00 PM 36.9953 -112.0808 253° West 322 371 30,000  Level Denver Center
Tue 12:40:02 PM 36.9697 -112.1872 253° West 320 368 30,000  Level Denver Center
Tue 12:40:24 PM 36.9581 -112.2322 252° West 321 369 30,000  Level Los Angeles Center
Tue 12:41:26 PM 36.9317 -112.3406 253° West 323 372 30,000  Level Los Angeles Center
Tue 12:42:28 PM 36.9064 -112.4464 253° West 320 368 30,000  Level Los Angeles Center
Tue 12:43:30 PM 36.8800 -112.5544 253° West 323 372 30,000  Level Los Angeles Center
Tue 12:44:32 PM 36.8539 -112.6636 253° West 325 374 30,000  Level Los Angeles Center
Tue 12:45:34 PM 36.8264 -112.7756 253° West 332 382 30,000  Level Los Angeles Center
Tue 12:46:36 PM 36.7994 -112.8869 253° West 334 384 30,000  Level Los Angeles Center
Tue 12:47:38 PM 36.7664 -113.0197 253° West 334 384 30,000  Level Los Angeles Center
Tue 12:48:40 PM 36.7392 -113.1311 253° West 335 386 30,000  Level Los Angeles Center
Tue 12:49:42 PM 36.7100 -113.2442 252° West 339 390 30,000 -97 Level Los Angeles Center
Tue 12:50:44 PM 36.6808 -113.3592 252° West 346 398 29,800 -968 Descending Los Angeles Center
Tue 12:51:46 PM 36.6536 -113.4714 253° West 341 392 28,000 -1,742 Descending Los Angeles Center
Tue 12:52:48 PM 36.6242 -113.5856 252° West 342 394 26,200 -1,935 Descending Los Angeles Center
Tue 12:53:50 PM 36.5917 -113.7217 253° West 343 395 24,000 -1,935 Descending Los Angeles Center
Tue 12:54:52 PM 36.5636 -113.8303 252° West 334 384 22,200 -1,694 Descending Los Angeles Center
Tue 12:55:54 PM 36.5358 -113.9369 252° West 327 376 20,500 -1,742 Descending Los Angeles Center
Tue 12:56:56 PM 36.5069 -114.0489 252° West 337 388 18,600 -1,680 Descending Los Angeles Center
Tue 12:57:59 PM 36.4783 -114.1606 252° West 338 389 17,000 -1,780 Descending Los Angeles Center
Tue 12:58:27 PM 36.4633 -114.2286 255° West 345 397 15,900 -1,742 Descending Los Angeles Center
Tue 12:59:01 PM 36.4511 -114.2694 250° West 334 384 15,200 -1,780 Descending Los Angeles Center
Tue 12:59:58 PM 36.4214 -114.3903 253° West 322 371 13,200 -1,548 Descending Los Angeles Center
Tue 01:01:05 PM 36.3894 -114.4978 250° West 316 364 12,000 -1,031 Descending Los Angeles Center
Tue 01:02:06 PM 36.3433 -114.5936 239° Southwest 300 345 11,000 -1,357 Descending Los Angeles Center
Tue 01:03:00 PM 36.3069 -114.6728 240° Southwest 290 334 9,400 -1,565 Descending Los Angeles Center
Tue 01:04:01 PM 36.2664 -114.7639 241° Southwest 300 345 8,000 -586 Descending Los Angeles Center
Tue 01:05:13 PM 36.2283 -114.8392 238° Southwest 283 326 8,100 44 Climbing Los Angeles Center
Tue 01:06:16 PM 36.1883 -114.9256 240° Southwest 249 287 8,100  Level Los Angeles Center
Tue 01:07:04 PM 36.1564 -114.9819 235° Southwest 240 276 8,100  Level Los Angeles Center
Tue 01:08:05 PM 36.1167 -115.0375 228° Southwest 214 246 8,100  Level Los Angeles Center
Tue 01:08:20 PM 36.1097 -115.0458 224° Southwest 220 253 8,100  Level Los Angeles Center
Tue 01:09:06 PM 36.0719 -115.0792 215° Southwest 213 245 8,100  Level Los Angeles Center
Tue 01:09:22 PM 36.0614 -115.0825 194° South 211 243 8,100 -787 Level Los Angeles Center
Tue 01:10:07 PM 36.0200 -115.1094 208° Southwest 207 238 7,300 -968 Descending Los Angeles Center
Tue 01:10:24 PM 36.0108 -115.1147 205° Southwest 205 236 7,100 -1,180 Descending Los Angeles Center
Tue 01:11:08 PM 35.9700 -115.1472 213° Southwest 198 228 6,100 -1,065 Descending Los Angeles Center
Tue 01:11:26 PM 35.9700 -115.1542 270° West 201 231 6,000 -1,600 Descending Los Angeles Center
Tue 01:12:08 PM 35.9914 -115.1961 302° West 169 194 4,500 -1,355 Descending Los Angeles Center
Tue 01:12:28 PM 35.9992 -115.2014 331° Northwest 184 212 4,600 -1,180 Climbing Los Angeles Center
Tue 01:13:09 PM 36.0314 -115.1908 15° North 159 183 3,300 -871 Descending Los Angeles Center
Tue 01:13:30 PM 35.9900 -115.2397 224° Southwest 204 235 3,700 -984 Climbing Los Angeles Center
Tue 01:14:10 PM 36.0700 -115.1703 35° Northeast 150 173 2,300 -871 Descending Los Angeles Center
Tue 01:14:32 PM 36.0811 -115.1622 30° Northeast 150 173 2,800 1,364 Climbing Los Angeles Center
Tue 01:16:00 PM 36.0801 -115.1523 North  Level Estimated

Login

Don't have an account? Register now (free) for customized features, flight alerts, and more!